Time;durP1;ratioP1;P1;durP2;ratioP2;P2;SDS_P1;SDS_P2;PMS_P1;PMS_P2;Temp;Humidity;BMP_temperature;BMP_pressure;BME280_temperature;BME280_humidity;BME280_pressure;Samples;Min_cycle;Max_cycle;Signal;HPM_P1;HPM_P2
2022/12/12 00:01:37;;;;;;;32.33;17.33;;;0.10;99.90;;;;;;5032048;28;20186;-64
2022/12/12 00:04:04;;;;;;;36.28;17.75;;;0.10;99.90;;;;;;5040640;28;20047;-63
2022/12/12 00:06:31;;;;;;;31.35;17.23;;;0.20;99.90;;;;;;5032095;28;20117;-64
2022/12/12 00:08:57;;;;;;;34.05;18.88;;;0.20;99.90;;;;;;5029801;28;20091;-64
2022/12/12 00:11:24;;;;;;;31.38;17.30;;;0.20;99.90;;;;;;5019855;28;20134;-62
2022/12/12 00:13:51;;;;;;;33.63;17.65;;;0.10;99.90;;;;;;5019065;28;20053;-63
2022/12/12 00:16:17;;;;;;;32.13;18.08;;;0.20;99.90;;;;;;5009883;28;22642;-63
2022/12/12 00:18:43;;;;;;;30.77;17.48;;;0.20;99.90;;;;;;5019573;28;20070;-63
2022/12/12 00:21:19;;;;;;;36.75;18.25;;;0.20;99.90;;;;;;5027883;28;20056;-62
2022/12/12 00:23:45;;;;;;;32.50;17.38;;;0.10;99.90;;;;;;5027911;28;20077;-62
2022/12/12 00:26:33;;;;;;;33.08;17.15;;;0.20;99.90;;;;;;5033112;28;20186;-62
2022/12/12 00:29:00;;;;;;;31.98;16.73;;;0.20;99.90;;;;;;5046030;28;20059;-64
2022/12/12 00:31:26;;;;;;;32.83;17.33;;;0.20;99.90;;;;;;5029832;28;20048;-63
2022/12/12 00:33:52;;;;;;;31.17;17.17;;;0.20;99.90;;;;;;5044808;28;20061;-61
2022/12/12 00:36:22;;;;;;;31.77;17.67;;;0.20;99.90;;;;;;5031203;28;20040;-61
2022/12/12 00:38:48;;;;;;;35.22;17.80;;;0.20;99.90;;;;;;5029796;28;20045;-63
2022/12/12 00:41:14;;;;;;;29.85;16.55;;;0.20;99.90;;;;;;5020474;28;20478;-62
2022/12/12 00:43:40;;;;;;;29.55;16.95;;;0.20;99.90;;;;;;5039680;28;20037;-62
2022/12/12 00:46:06;;;;;;;29.25;16.65;;;0.20;99.90;;;;;;5033809;28;20420;-64
2022/12/12 00:48:32;;;;;;;32.50;18.00;;;0.20;99.90;;;;;;5034750;28;20049;-61
2022/12/12 00:51:07;;;;;;;31.30;17.27;;;0.20;99.90;;;;;;5045465;28;20075;-62
2022/12/12 00:53:33;;;;;;;30.05;17.58;;;0.20;99.90;;;;;;5014430;28;20049;-61
2022/12/12 00:55:58;;;;;;;30.77;17.08;;;0.20;99.90;;;;;;5039858;28;20045;-62
2022/12/12 00:58:25;;;;;;;30.52;17.10;;;0.20;99.90;;;;;;5031362;28;20065;-61
2022/12/12 01:00:52;;;;;;;34.97;17.80;;;0.20;99.90;;;;;;5032657;28;20064;-61
2022/12/12 01:03:18;;;;;;;29.38;16.50;;;0.20;99.90;;;;;;5033101;28;20044;-62
2022/12/12 01:05:45;;;;;;;32.28;16.45;;;0.20;99.90;;;;;;5032933;28;20044;-61
2022/12/12 01:08:11;;;;;;;32.53;16.67;;;0.20;99.90;;;;;;5016348;28;20488;-68
2022/12/12 01:10:37;;;;;;;30.48;16.55;;;0.20;99.90;;;;;;5023502;28;20110;-61
2022/12/12 01:13:03;;;;;;;34.45;17.58;;;0.20;99.90;;;;;;5009851;28;20045;-61
2022/12/12 01:15:29;;;;;;;31.08;17.48;;;0.20;99.90;;;;;;5024491;28;20068;-62
2022/12/12 01:17:55;;;;;;;28.58;16.35;;;0.20;99.90;;;;;;5013555;28;21571;-63
2022/12/12 01:20:24;;;;;;;32.25;17.42;;;0.30;99.90;;;;;;5028992;28;20045;-61
2022/12/12 01:22:50;;;;;;;30.92;16.98;;;0.20;99.90;;;;;;5036877;28;20164;-64
2022/12/12 01:25:17;;;;;;;30.50;16.75;;;0.20;99.90;;;;;;5027055;28;20149;-64
2022/12/12 01:27:44;;;;;;;33.67;17.38;;;0.20;99.90;;;;;;5048057;28;20040;-61
2022/12/12 01:30:17;;;;;;;28.98;17.05;;;0.20;99.90;;;;;;5036509;28;20056;-62
2022/12/12 01:32:43;;;;;;;30.55;17.00;;;0.20;99.90;;;;;;5028154;28;20168;-61
2022/12/12 01:35:10;;;;;;;30.33;16.73;;;0.20;99.90;;;;;;5029800;28;20057;-62
2022/12/12 01:37:37;;;;;;;33.17;16.85;;;0.20;99.90;;;;;;5035262;28;20132;-61
2022/12/12 01:40:07;;;;;;;31.60;16.90;;;0.20;99.90;;;;;;5021586;28;20064;-63
2022/12/12 01:42:32;;;;;;;28.48;16.20;;;0.20;99.90;;;;;;5045528;28;20176;-63
2022/12/12 01:44:58;;;;;;;30.63;16.02;;;0.20;99.90;;;;;;5031167;28;20045;-61
2022/12/12 01:47:25;;;;;;;30.27;17.05;;;0.20;99.90;;;;;;5029514;28;20041;-61
2022/12/12 01:50:00;;;;;;;29.00;16.95;;;0.10;99.90;;;;;;5015245;28;20044;-63
2022/12/12 01:52:30;;;;;;;31.50;16.45;;;0.30;99.90;;;;;;5031933;28;20053;-61
2022/12/12 01:54:59;;;;;;;31.48;16.65;;;0.20;99.90;;;;;;5017024;28;20410;-61
2022/12/12 01:57:40;;;;;;;29.80;17.17;;;0.20;99.90;;;;;;5031427;28;20417;-61
2022/12/12 02:00:08;;;;;;;28.13;15.52;;;0.20;99.90;;;;;;5031586;28;20515;-63
2022/12/12 02:02:36;;;;;;;28.85;16.55;;;0.20;99.90;;;;;;5029589;28;20040;-61
2022/12/12 02:05:27;;;;;;;29.58;15.50;;;0.20;99.90;;;;;;5015977;28;20403;-62
2022/12/12 02:07:53;;;;;;;27.70;15.43;;;0.20;99.90;;;;;;5017259;28;20052;-62
2022/12/12 02:10:19;;;;;;;26.88;15.88;;;0.20;99.90;;;;;;5027115;28;20440;-62
2022/12/12 02:12:46;;;;;;;28.83;15.73;;;0.10;99.90;;;;;;5023980;28;20155;-62
2022/12/12 02:15:12;;;;;;;28.30;15.65;;;0.10;99.90;;;;;;5026479;28;20250;-65
2022/12/12 02:17:45;;;;;;;28.60;16.20;;;0.10;99.90;;;;;;5026944;28;20037;-62
2022/12/12 02:20:11;;;;;;;28.38;15.77;;;0.10;99.90;;;;;;5029685;28;20053;-61
2022/12/12 02:23:22;;;;;;;27.90;16.00;;;0.20;99.90;;;;;;5018929;28;20460;-63
2022/12/12 02:26:13;;;;;;;28.52;16.13;;;0.20;99.90;;;;;;5026940;28;20480;-62
2022/12/12 02:29:18;;;;;;;31.23;16.52;;;0.10;99.90;;;;;;5029205;28;20123;-63
2022/12/12 02:31:50;;;;;;;29.40;15.88;;;0.10;99.90;;;;;;5027299;28;20100;-61
2022/12/12 02:34:42;;;;;;;31.80;17.25;;;0.10;99.90;;;;;;5032726;28;20117;-63
2022/12/12 02:37:31;;;;;;;29.23;15.80;;;0.10;99.90;;;;;;5030259;28;20400;-63
2022/12/12 02:40:19;;;;;;;29.67;15.30;;;0.10;99.90;;;;;;5029278;28;20533;-63
2022/12/12 02:43:10;;;;;;;32.72;16.48;;;0.20;99.90;;;;;;5007373;28;20049;-62
2022/12/12 02:45:59;;;;;;;32.20;17.05;;;0.10;99.90;;;;;;5024824;28;20432;-61
2022/12/12 02:48:40;;;;;;;29.70;15.90;;;0.10;99.90;;;;;;5028401;28;20037;-63
2022/12/12 02:51:09;;;;;;;30.20;15.98;;;0.10;99.90;;;;;;5032468;28;20045;-63
2022/12/12 02:53:35;;;;;;;30.73;16.77;;;0.10;99.90;;;;;;5015790;28;20108;-62
2022/12/12 02:56:26;;;;;;;29.73;16.70;;;0.10;99.90;;;;;;5032811;28;20520;-61
2022/12/12 02:58:52;;;;;;;27.52;15.68;;;0.10;99.90;;;;;;5045265;28;20056;-61
2022/12/12 03:01:56;;;;;;;28.83;15.48;;;0.10;99.90;;;;;;5001463;28;20492;-62
2022/12/12 03:07:47;;;;;;;29.58;15.85;;;0.10;99.90;;;;;;5044404;28;20053;-64
2022/12/12 03:10:48;;;;;;;28.45;15.93;;;0.10;99.90;;;;;;5033379;28;20391;-63
2022/12/12 03:13:38;;;;;;;30.38;16.60;;;0.10;99.90;;;;;;4996636;28;20789;-61
2022/12/12 03:16:22;;;;;;;31.17;17.17;;;0.10;99.90;;;;;;5019579;28;20048;-64
2022/12/12 03:19:12;;;;;;;30.88;16.13;;;0.10;99.90;;;;;;5027163;28;20047;-61
2022/12/12 03:21:59;;;;;;;27.40;15.65;;;0.10;99.90;;;;;;5027578;28;20559;-61
2022/12/12 03:24:39;;;;;;;29.30;15.88;;;0.10;99.90;;;;;;5035762;28;20071;-62
2022/12/12 03:27:29;;;;;;;27.40;16.08;;;0.10;99.90;;;;;;5027945;28;20079;-63
2022/12/12 03:30:01;;;;;;;27.98;15.85;;;0.10;99.90;;;;;;5028004;28;20091;-61
2022/12/12 03:32:37;;;;;;;27.65;14.38;;;0.10;99.90;;;;;;5027309;28;20057;-62
2022/12/12 03:35:19;;;;;;;27.77;15.82;;;0.10;99.90;;;;;;5014210;28;20053;-61
2022/12/12 03:38:01;;;;;;;26.75;15.07;;;0.10;99.90;;;;;;5022820;28;20522;-64
2022/12/12 03:40:34;;;;;;;27.80;15.82;;;0.10;99.90;;;;;;5017050;28;20122;-63
2022/12/12 03:43:07;;;;;;;27.05;14.85;;;0.10;99.90;;;;;;5026629;28;20069;-61
2022/12/12 03:46:07;;;;;;;29.13;15.40;;;0.10;99.90;;;;;;5022033;28;20063;-62
2022/12/12 03:48:39;;;;;;;27.98;15.82;;;0.10;99.90;;;;;;5033250;28;20130;-63
2022/12/12 03:51:18;;;;;;;28.02;15.50;;;0.10;99.90;;;;;;5029557;28;20045;-64
2022/12/12 03:54:23;;;;;;;27.65;15.57;;;0.10;99.90;;;;;;5033506;28;20044;-62
2022/12/12 03:57:02;;;;;;;31.60;15.35;;;0.10;99.90;;;;;;5025870;28;20052;-61
2022/12/12 03:59:52;;;;;;;25.27;14.68;;;0.10;99.90;;;;;;5026138;28;20115;-63
2022/12/12 04:02:30;;;;;;;28.65;15.82;;;0.10;99.90;;;;;;5029092;28;20036;-63
2022/12/12 04:05:09;;;;;;;28.58;15.45;;;0.10;99.90;;;;;;5029150;28;20048;-63
2022/12/12 04:07:42;;;;;;;27.55;15.35;;;0.10;99.90;;;;;;5027265;28;20049;-62
2022/12/12 04:13:19;;;;;;;31.45;15.02;;;0.10;99.90;;;;;;5028352;28;20036;-63
2022/12/12 04:15:48;;;;;;;26.73;16.02;;;0.10;99.90;;;;;;4983595;28;20056;-60
2022/12/12 04:18:35;;;;;;;29.40;15.68;;;0.10;99.90;;;;;;5027258;28;20149;-61
2022/12/12 04:24:40;;;;;;;;;;;0.10;99.90;;;;;;4985640;28;20263;-61
2022/12/12 04:27:19;;;;;;;30.75;15.10;;;0.10;99.90;;;;;;5035822;28;19936;-63
2022/12/12 04:30:04;;;;;;;25.45;14.93;;;0.10;99.90;;;;;;5026091;28;20049;-64
2022/12/12 04:32:37;;;;;;;27.13;14.77;;;0.10;99.90;;;;;;5032202;28;20045;-62
2022/12/12 04:35:20;;;;;;;26.83;15.13;;;0.10;99.90;;;;;;5027200;28;20076;-62
2022/12/12 04:37:55;;;;;;;26.75;14.27;;;0.10;99.90;;;;;;5017361;28;20674;-61
2022/12/12 04:40:29;;;;;;;26.27;14.05;;;0.10;99.90;;;;;;5027182;28;20056;-62
2022/12/12 04:43:02;;;;;;;28.48;14.43;;;0.10;99.90;;;;;;5032786;28;20572;-62
2022/12/12 04:45:33;;;;;;;26.65;14.27;;;0.10;99.90;;;;;;5032028;28;20044;-61
2022/12/12 04:48:01;;;;;;;26.13;14.65;;;0.10;99.90;;;;;;5017822;28;20113;-61
2022/12/12 04:50:30;;;;;;;25.48;14.13;;;0.10;99.90;;;;;;5012232;28;20045;-61
2022/12/12 04:52:59;;;;;;;27.25;14.35;;;0.10;99.90;;;;;;5036286;28;20045;-63
2022/12/12 04:55:35;;;;;;;26.60;14.27;;;0.10;99.90;;;;;;5037320;28;20053;-61
2022/12/12 04:58:02;;;;;;;27.15;14.95;;;0.20;99.90;;;;;;5031490;28;20053;-61
2022/12/12 05:00:37;;;;;;;26.35;15.00;;;0.10;99.90;;;;;;5031775;28;20045;-63
2022/12/12 05:03:27;;;;;;;27.52;15.20;;;0.10;99.90;;;;;;5034377;28;20053;-61
2022/12/12 05:06:00;;;;;;;25.48;14.13;;;0.10;99.90;;;;;;5009726;28;21253;-62
2022/12/12 05:08:33;;;;;;;28.35;15.77;;;0.10;99.90;;;;;;5018841;28;20435;-63
2022/12/12 05:11:02;;;;;;;26.05;14.00;;;0.10;99.90;;;;;;5025531;28;20095;-64
2022/12/12 05:13:40;;;;;;;24.27;13.93;;;0.10;99.90;;;;;;5034022;28;20052;-62
2022/12/12 05:16:28;;;;;;;26.25;14.57;;;0.10;99.90;;;;;;5038106;28;20044;-63
2022/12/12 05:18:54;;;;;;;24.50;14.27;;;0.10;99.90;;;;;;5028981;28;21124;-61
2022/12/12 05:21:20;;;;;;;24.45;14.30;;;0.10;99.90;;;;;;5002897;28;20074;-63
2022/12/12 05:23:46;;;;;;;25.75;14.13;;;0.10;99.90;;;;;;5000196;28;20602;-64
2022/12/12 05:26:22;;;;;;;24.45;14.07;;;0.10;99.90;;;;;;5030263;28;20053;-62
2022/12/12 05:28:48;;;;;;;26.17;13.85;;;0.10;99.90;;;;;;5036428;28;20102;-62
2022/12/12 05:31:14;;;;;;;24.63;14.32;;;0.10;99.90;;;;;;5030697;28;20049;-63
2022/12/12 05:33:40;;;;;;;27.67;14.88;;;0.10;99.90;;;;;;5020163;28;20068;-61
2022/12/12 05:36:07;;;;;;;27.90;14.77;;;0.10;99.90;;;;;;5032614;28;20045;-62
2022/12/12 05:38:33;;;;;;;29.38;14.70;;;0.10;99.90;;;;;;5032857;28;20052;-65
2022/12/12 05:40:59;;;;;;;28.73;14.70;;;0.10;99.90;;;;;;5026008;28;20049;-63
2022/12/12 05:43:25;;;;;;;24.02;14.15;;;0.10;99.90;;;;;;5030272;28;21075;-61
2022/12/12 05:45:51;;;;;;;27.75;14.65;;;0.10;99.90;;;;;;5017550;28;20036;-64
2022/12/12 05:48:16;;;;;;;22.33;13.85;;;0.10;99.90;;;;;;5026814;28;20052;-62
2022/12/12 05:50:42;;;;;;;26.77;15.45;;;0.10;99.90;;;;;;5037784;28;20842;-62
2022/12/12 05:53:08;;;;;;;28.58;14.80;;;0.10;99.90;;;;;;5029651;28;20056;-62
2022/12/12 05:55:34;;;;;;;28.75;14.55;;;0.10;99.90;;;;;;5019360;28;20182;-62
2022/12/12 05:58:00;;;;;;;26.52;14.30;;;0.00;99.90;;;;;;5022101;28;20046;-64
2022/12/12 06:00:26;;;;;;;25.23;13.80;;;0.10;99.90;;;;;;5030521;28;20065;-65
2022/12/12 06:02:53;;;;;;;25.85;14.60;;;0.00;99.90;;;;;;5022138;28;20037;-62
2022/12/12 06:05:18;;;;;;;27.42;14.70;;;0.10;99.90;;;;;;5026576;28;20877;-62
2022/12/12 06:07:44;;;;;;;27.65;15.00;;;0.10;99.90;;;;;;5029560;28;20049;-64
2022/12/12 06:10:11;;;;;;;25.35;14.52;;;0.00;99.90;;;;;;5032955;28;20959;-61
2022/12/12 06:12:37;;;;;;;25.75;13.80;;;0.00;99.90;;;;;;5026831;28;20045;-62
2022/12/12 06:15:03;;;;;;;28.65;14.80;;;0.00;99.90;;;;;;5018877;28;20582;-61
2022/12/12 06:17:29;;;;;;;29.38;15.25;;;0.00;99.90;;;;;;5011874;28;20146;-62
2022/12/12 06:19:55;;;;;;;26.30;14.88;;;0.00;99.90;;;;;;5010401;28;20042;-62
2022/12/12 06:22:21;;;;;;;26.27;14.63;;;0.00;99.90;;;;;;5021874;28;20119;-63
2022/12/12 06:24:47;;;;;;;23.77;14.35;;;0.00;99.90;;;;;;5030845;28;20104;-62
2022/12/12 06:27:13;;;;;;;25.75;14.48;;;0.00;99.90;;;;;;5017166;28;20049;-63
2022/12/12 06:29:39;;;;;;;28.08;15.20;;;0.00;99.90;;;;;;5010152;28;20053;-64
2022/12/12 06:32:05;;;;;;;26.13;14.00;;;0.00;99.90;;;;;;5020547;28;20449;-60
2022/12/12 06:34:31;;;;;;;25.30;13.88;;;0.00;99.90;;;;;;5027082;28;20060;-64
2022/12/12 06:36:57;;;;;;;25.35;14.05;;;0.00;99.90;;;;;;5028564;28;20048;-61
2022/12/12 06:39:23;;;;;;;28.13;15.23;;;0.00;99.90;;;;;;5015618;28;20178;-62
2022/12/12 06:41:49;;;;;;;25.30;14.13;;;0.00;99.90;;;;;;5033099;28;24179;-63
2022/12/12 06:44:15;;;;;;;26.15;15.02;;;0.00;99.90;;;;;;5010859;28;20231;-63
2022/12/12 06:46:40;;;;;;;26.58;15.07;;;0.00;99.90;;;;;;5036665;28;20120;-63
2022/12/12 06:49:08;;;;;;;27.98;15.88;;;0.00;99.90;;;;;;5017039;28;20084;-63
2022/12/12 06:51:42;;;;;;;28.58;15.68;;;0.00;99.90;;;;;;5026449;28;20164;-61
2022/12/12 06:54:12;;;;;;;26.80;15.05;;;0.00;99.90;;;;;;5023691;28;20063;-63
2022/12/12 06:56:38;;;;;;;26.27;14.55;;;0.00;99.90;;;;;;5037431;28;20045;-64
2022/12/12 06:59:04;;;;;;;27.05;14.77;;;0.00;99.90;;;;;;5019362;28;20136;-64
2022/12/12 07:01:30;;;;;;;27.52;15.98;;;0.00;99.90;;;;;;5032039;28;20488;-63
2022/12/12 07:03:56;;;;;;;27.70;15.23;;;0.00;99.90;;;;;;5045976;28;20048;-61
2022/12/12 07:06:22;;;;;;;25.25;14.80;;;0.00;99.90;;;;;;5015080;28;20045;-61
2022/12/12 07:08:49;;;;;;;28.02;15.95;;;0.00;99.90;;;;;;5028365;28;20518;-63
2022/12/12 07:11:23;;;;;;;27.52;15.63;;;0.00;99.90;;;;;;5020763;28;20045;-65
2022/12/12 07:13:49;;;;;;;29.48;15.60;;;0.00;99.90;;;;;;4997871;28;20106;-66
2022/12/12 07:16:15;;;;;;;26.33;14.65;;;0.00;99.90;;;;;;5019747;28;20045;-64
2022/12/12 07:18:41;;;;;;;30.73;16.02;;;0.00;99.90;;;;;;5029733;28;20045;-60
2022/12/12 07:21:09;;;;;;;29.40;16.02;;;0.00;99.90;;;;;;5019939;28;20547;-63
2022/12/12 07:23:36;;;;;;;27.60;15.75;;;0.00;99.90;;;;;;5029850;28;20049;-62
2022/12/12 07:26:03;;;;;;;27.33;14.82;;;0.00;99.90;;;;;;5046861;28;21075;-66
2022/12/12 07:28:30;;;;;;;27.73;15.57;;;0.00;99.90;;;;;;5004109;28;20138;-60
2022/12/12 07:30:56;;;;;;;28.15;15.13;;;0.00;99.90;;;;;;5028689;28;20036;-62
2022/12/12 07:33:21;;;;;;;27.85;15.50;;;0.00;99.90;;;;;;5034587;28;20072;-63
2022/12/12 07:35:47;;;;;;;33.22;16.20;;;0.00;99.90;;;;;;5027301;28;20045;-61
2022/12/12 07:38:14;;;;;;;28.13;16.23;;;0.00;99.90;;;;;;5013716;28;20045;-62
2022/12/12 07:40:40;;;;;;;27.02;15.55;;;0.00;99.90;;;;;;5015879;28;20499;-61
2022/12/12 07:43:06;;;;;;;29.27;15.60;;;0.00;99.90;;;;;;5029708;28;20503;-63
2022/12/12 07:45:32;;;;;;;28.92;15.65;;;0.00;99.90;;;;;;5016464;28;20045;-61
2022/12/12 07:47:58;;;;;;;28.88;15.77;;;0.00;99.90;;;;;;5031962;28;20045;-62
2022/12/12 07:50:24;;;;;;;25.58;15.02;;;0.00;99.90;;;;;;5013666;28;21280;-64
2022/12/12 07:52:50;;;;;;;25.67;15.27;;;0.10;99.90;;;;;;5029025;28;20103;-62
2022/12/12 07:55:15;;;;;;;28.48;15.93;;;0.00;99.90;;;;;;5029333;28;20076;-62
2022/12/12 07:57:41;;;;;;;31.15;16.67;;;0.00;99.90;;;;;;5030989;28;20083;-64
2022/12/12 08:00:12;;;;;;;31.95;15.70;;;0.00;99.90;;;;;;5029723;28;20041;-62
2022/12/12 08:02:38;;;;;;;25.52;15.23;;;0.00;99.90;;;;;;5031404;28;20038;-61
2022/12/12 08:05:04;;;;;;;27.88;15.05;;;0.00;99.90;;;;;;5033299;28;20136;-64
2022/12/12 08:07:30;;;;;;;27.92;14.93;;;0.00;99.90;;;;;;5028359;28;20049;-64
2022/12/12 08:09:56;;;;;;;27.15;15.55;;;0.00;99.90;;;;;;5023685;28;20052;-62
2022/12/12 08:12:22;;;;;;;29.05;16.10;;;0.00;99.90;;;;;;5026185;28;20056;-64
2022/12/12 08:14:48;;;;;;;30.20;16.23;;;0.00;99.90;;;;;;5030887;28;20056;-62
2022/12/12 08:17:14;;;;;;;26.25;15.13;;;0.00;99.90;;;;;;5031331;28;20084;-65
2022/12/12 08:19:40;;;;;;;28.48;15.82;;;0.00;99.90;;;;;;5031133;28;20049;-61
2022/12/12 08:22:07;;;;;;;28.92;15.38;;;0.00;99.90;;;;;;5021953;28;20049;-62
2022/12/12 08:24:33;;;;;;;31.35;16.58;;;0.00;99.90;;;;;;5019058;28;20151;-63
2022/12/12 08:26:59;;;;;;;29.70;15.55;;;0.00;99.90;;;;;;5036398;28;20045;-61
2022/12/12 08:29:25;;;;;;;28.23;15.40;;;0.00;99.90;;;;;;5028134;28;20111;-63
2022/12/12 08:31:50;;;;;;;28.67;15.50;;;0.00;99.90;;;;;;5027108;28;20542;-63
2022/12/12 08:34:16;;;;;;;26.98;15.38;;;0.00;99.90;;;;;;5019454;28;20045;-62
2022/12/12 08:36:42;;;;;;;25.88;15.43;;;0.00;99.90;;;;;;5029382;28;20049;-64
2022/12/12 08:39:11;;;;;;;27.80;15.93;;;0.00;99.90;;;;;;5032335;28;20254;-64
2022/12/12 08:41:40;;;;;;;26.48;14.73;;;0.10;99.90;;;;;;5046210;28;20056;-62
2022/12/12 08:44:07;;;;;;;27.40;15.52;;;0.20;99.90;;;;;;5011750;28;20045;-63
2022/12/12 08:46:33;;;;;;;26.77;15.50;;;0.10;99.90;;;;;;5016055;28;20563;-64
2022/12/12 08:48:59;;;;;;;25.20;15.52;;;0.20;99.90;;;;;;5031555;28;20174;-64
2022/12/12 08:51:24;;;;;;;26.80;15.13;;;0.10;99.90;;;;;;5001794;28;20569;-63
2022/12/12 08:53:52;;;;;;;26.05;14.75;;;0.10;99.90;;;;;;5029953;28;20116;-62
2022/12/12 08:56:19;;;;;;;25.70;16.10;;;0.10;99.90;;;;;;5029484;28;20053;-62
2022/12/12 08:58:46;;;;;;;26.33;15.68;;;0.20;99.90;;;;;;5032845;28;20452;-64
2022/12/12 09:01:17;;;;;;;24.77;14.68;;;0.20;99.90;;;;;;5030857;28;20132;-62
2022/12/12 09:03:43;;;;;;;25.05;14.55;;;0.20;99.90;;;;;;5031723;28;20128;-65
2022/12/12 09:06:09;;;;;;;24.90;14.20;;;0.20;99.90;;;;;;5031549;28;20052;-62
2022/12/12 09:08:36;;;;;;;23.60;14.25;;;0.20;99.90;;;;;;5015790;28;20045;-62
2022/12/12 09:11:02;;;;;;;25.13;14.35;;;0.20;99.90;;;;;;5023929;28;20045;-64
2022/12/12 09:13:29;;;;;;;29.67;15.95;;;0.30;99.90;;;;;;5028491;28;20072;-63
2022/12/12 09:15:55;;;;;;;24.38;14.68;;;0.30;99.90;;;;;;5015474;28;20060;-62
2022/12/12 09:18:21;;;;;;;27.13;15.40;;;0.30;99.90;;;;;;5027575;28;20282;-64
2022/12/12 09:20:53;;;;;;;27.02;14.63;;;0.30;99.90;;;;;;5031996;28;20084;-63
2022/12/12 09:23:20;;;;;;;25.40;14.95;;;0.30;99.90;;;;;;5034628;28;20102;-64
2022/12/12 09:25:46;;;;;;;26.27;15.07;;;0.30;99.90;;;;;;4998643;28;20034;-63
2022/12/12 09:28:14;;;;;;;28.90;15.13;;;0.40;99.90;;;;;;5029103;28;21140;-64
2022/12/12 09:30:41;;;;;;;26.40;15.18;;;0.40;99.90;;;;;;5030364;28;20498;-62
2022/12/12 09:33:07;;;;;;;25.17;14.63;;;0.40;99.90;;;;;;5035381;28;20059;-64
2022/12/12 09:35:33;;;;;;;28.13;15.52;;;0.50;99.90;;;;;;5029725;28;20045;-63
2022/12/12 09:37:59;;;;;;;26.30;15.63;;;0.60;99.90;;;;;;5003518;28;20063;-63
2022/12/12 09:40:41;;;;;;;25.85;15.13;;;0.50;99.90;;;;;;5029190;28;20609;-63
2022/12/12 09:43:15;;;;;;;25.55;14.45;;;0.50;99.90;;;;;;5028247;28;20045;-63
2022/12/12 09:45:41;;;;;;;25.95;14.68;;;0.50;99.90;;;;;;5029533;28;20045;-64
2022/12/12 09:48:10;;;;;;;26.48;15.07;;;0.60;99.90;;;;;;5020167;28;20445;-62
2022/12/12 09:50:40;;;;;;;28.90;14.98;;;0.50;99.90;;;;;;5033021;28;20053;-64
2022/12/12 09:53:16;;;;;;;25.85;14.82;;;0.70;99.90;;;;;;5030812;28;20055;-63
2022/12/12 09:56:00;;;;;;;27.17;15.20;;;0.60;99.90;;;;;;5027268;28;20052;-63
2022/12/12 09:58:57;;;;;;;23.92;14.55;;;0.60;99.90;;;;;;5028288;28;20538;-65
2022/12/12 10:01:36;;;;;;;27.80;15.32;;;0.70;99.90;;;;;;5004464;28;20057;-63
2022/12/12 10:04:13;;;;;;;26.00;14.90;;;0.70;99.90;;;;;;4998702;28;20088;-63
2022/12/12 10:06:46;;;;;;;25.15;15.43;;;0.70;99.90;;;;;;5010066;28;20511;-65
2022/12/12 10:09:34;;;;;;;25.58;14.63;;;0.70;99.90;;;;;;5034779;28;20049;-65
2022/12/12 10:12:02;;;;;;;23.88;14.77;;;0.70;99.90;;;;;;5013268;28;20042;-63
2022/12/12 10:14:48;;;;;;;23.50;13.85;;;0.80;99.90;;;;;;5032943;28;20053;-63
2022/12/12 10:17:23;;;;;;;24.55;14.93;;;0.80;99.90;;;;;;5027513;28;20057;-66
2022/12/12 10:19:57;;;;;;;23.88;14.63;;;0.90;99.90;;;;;;5034355;28;20049;-63
2022/12/12 10:22:39;;;;;;;24.77;14.63;;;0.90;99.90;;;;;;5037151;28;20102;-63
2022/12/12 10:25:07;;;;;;;23.42;13.55;;;0.90;99.90;;;;;;5032520;28;20043;-63
2022/12/12 10:27:33;;;;;;;24.70;14.32;;;1.00;99.90;;;;;;5034082;28;20040;-63
2022/12/12 10:30:13;;;;;;;24.15;14.20;;;1.10;99.90;;;;;;5032448;28;20149;-64
2022/12/12 10:33:03;;;;;;;25.13;14.95;;;1.10;99.90;;;;;;5033809;28;20103;-62
2022/12/12 10:35:42;;;;;;;23.42;14.85;;;1.30;99.90;;;;;;5033351;28;20057;-64
2022/12/12 10:38:17;;;;;;;22.95;14.18;;;1.40;99.90;;;;;;5029826;28;20068;-65
2022/12/12 10:41:15;;;;;;;25.67;15.00;;;1.50;99.90;;;;;;5027744;28;20049;-64
2022/12/12 10:44:07;;;;;;;25.70;14.70;;;1.60;99.90;;;;;;4993313;28;20741;-64
2022/12/12 10:46:39;;;;;;;24.52;14.32;;;1.80;99.90;;;;;;5029638;28;20488;-65
2022/12/12 10:49:17;;;;;;;23.00;14.50;;;1.80;99.90;;;;;;5030135;28;20049;-62
2022/12/12 10:51:47;;;;;;;22.88;13.60;;;1.90;99.90;;;;;;5018193;28;20502;-62
2022/12/12 10:54:17;;;;;;;22.27;13.75;;;2.00;99.90;;;;;;5021187;28;20041;-67
2022/12/12 10:57:03;;;;;;;23.30;14.65;;;2.10;99.90;;;;;;5023424;28;20076;-66
2022/12/12 10:59:29;;;;;;;22.02;13.60;;;2.10;99.90;;;;;;5029729;28;20411;-62
2022/12/12 11:01:59;;;;;;;22.10;13.45;;;2.10;99.90;;;;;;5011213;28;20535;-64
2022/12/12 11:04:30;;;;;;;21.75;13.93;;;2.20;99.90;;;;;;5010653;28;20044;-62
2022/12/12 11:06:56;;;;;;;21.10;13.18;;;2.40;99.90;;;;;;5027565;28;20407;-63
2022/12/12 11:09:24;;;;;;;20.65;13.20;;;2.30;99.90;;;;;;4999961;28;20553;-62
2022/12/12 11:12:00;;;;;;;22.40;13.32;;;2.30;99.90;;;;;;5028290;28;20053;-62
2022/12/12 11:14:43;;;;;;;22.45;13.70;;;2.30;99.90;;;;;;5021899;28;20061;-62
2022/12/12 11:17:20;;;;;;;23.25;14.05;;;2.20;99.90;;;;;;5026634;28;20049;-62
2022/12/12 11:19:46;;;;;;;20.63;12.38;;;2.20;99.90;;;;;;5026292;28;20060;-62
2022/12/12 11:22:13;;;;;;;20.35;12.85;;;2.20;99.90;;;;;;5028400;28;20198;-66
2022/12/12 11:24:44;;;;;;;19.25;12.45;;;2.20;99.90;;;;;;5039257;28;20045;-63
2022/12/12 11:27:29;;;;;;;21.33;13.02;;;2.10;99.90;;;;;;5029210;28;20140;-64
2022/12/12 11:30:00;;;;;;;21.55;13.73;;;2.00;99.90;;;;;;5027218;28;20055;-64
2022/12/12 11:32:31;;;;;;;22.83;13.88;;;2.00;99.90;;;;;;5029076;28;20053;-64
2022/12/12 11:35:03;;;;;;;24.17;13.57;;;2.00;99.90;;;;;;5025905;28;20053;-64
2022/12/12 11:37:46;;;;;;;23.23;13.57;;;2.00;99.90;;;;;;5028334;28;20053;-63
2022/12/12 11:40:39;;;;;;;19.90;12.77;;;2.00;99.90;;;;;;5026333;28;20085;-64
2022/12/12 11:43:47;;;;;;;20.93;13.33;;;2.00;99.90;;;;;;5018509;28;20044;-63
2022/12/12 11:46:12;;;;;;;22.00;13.07;;;2.00;99.90;;;;;;5018707;28;20809;-64
2022/12/12 11:48:42;;;;;;;20.10;12.52;;;2.00;99.90;;;;;;5011383;28;20049;-64
2022/12/12 11:51:09;;;;;;;21.83;13.20;;;2.00;99.90;;;;;;5026114;28;20204;-64
2022/12/12 11:53:44;;;;;;;20.80;12.73;;;2.00;99.90;;;;;;5040922;28;20049;-64
2022/12/12 11:56:21;;;;;;;20.65;12.32;;;2.00;99.90;;;;;;5026612;28;20483;-64
2022/12/12 11:58:50;;;;;;;20.98;12.90;;;2.00;99.90;;;;;;5031581;28;20866;-64
2022/12/12 12:01:30;;;;;;;22.05;13.30;;;2.00;99.90;;;;;;5028683;28;20045;-64
2022/12/12 12:04:35;;;;;;;20.70;12.60;;;2.00;99.90;;;;;;5028793;28;20132;-63
2022/12/12 12:07:12;;;;;;;19.10;12.38;;;2.00;99.90;;;;;;5010717;28;20469;-60
2022/12/12 12:09:53;;;;;;;19.50;12.80;;;2.10;99.90;;;;;;5031050;28;20052;-60
2022/12/12 12:13:00;;;;;;;20.85;13.02;;;2.00;99.90;;;;;;5025978;28;20156;-59
2022/12/12 12:15:31;;;;;;;22.10;12.57;;;2.00;99.90;;;;;;4996573;28;20065;-59
2022/12/12 12:18:03;;;;;;;19.15;11.23;;;2.00;99.90;;;;;;5029928;28;20048;-59
2022/12/12 12:20:52;;;;;;;20.42;12.25;;;2.00;99.90;;;;;;5030573;28;20586;-59
2022/12/12 12:23:33;;;;;;;23.75;12.80;;;2.00;99.90;;;;;;5031280;28;20033;-60
2022/12/12 12:26:13;;;;;;;18.92;12.20;;;2.10;99.90;;;;;;5028935;28;20122;-57
2022/12/12 12:28:59;;;;;;;18.42;12.63;;;2.10;99.90;;;;;;5030476;28;20483;-59
2022/12/12 12:32:07;;;;;;;26.33;13.57;;;2.10;99.90;;;;;;5027668;28;20136;-59
2022/12/12 12:34:47;;;;;;;20.73;12.90;;;2.10;99.90;;;;;;5016968;28;20108;-58
2022/12/12 12:37:39;;;;;;;21.80;12.38;;;2.10;99.90;;;;;;5031452;28;20059;-59
2022/12/12 12:40:05;;;;;;;21.83;13.35;;;2.10;99.90;;;;;;5028302;28;20037;-60
2022/12/12 12:43:02;;;;;;;20.33;12.68;;;2.10;99.90;;;;;;5030034;28;20056;-59
2022/12/12 12:45:31;;;;;;;21.73;13.20;;;2.00;99.90;;;;;;5029053;28;20048;-60
2022/12/12 12:48:03;;;;;;;21.58;12.95;;;2.00;99.90;;;;;;5012814;28;20053;-59
2022/12/12 12:50:33;;;;;;;19.97;12.80;;;2.00;99.90;;;;;;5028505;28;20376;-60
2022/12/12 12:53:06;;;;;;;20.08;12.70;;;2.00;99.90;;;;;;5031260;28;20064;-59
2022/12/12 12:55:37;;;;;;;20.50;12.95;;;2.00;99.90;;;;;;5029053;28;20045;-59
2022/12/12 12:58:05;;;;;;;20.25;13.07;;;2.10;99.90;;;;;;5032953;28;20060;-60
2022/12/12 13:00:33;;;;;;;24.60;13.60;;;2.00;99.90;;;;;;5033022;28;20132;-59
2022/12/12 13:03:23;;;;;;;23.80;13.18;;;2.10;99.90;;;;;;5033294;28;21064;-59
2022/12/12 13:05:56;;;;;;;20.85;12.90;;;2.00;99.90;;;;;;5033276;28;20776;-60
2022/12/12 13:08:56;;;;;;;21.33;13.60;;;2.00;99.90;;;;;;5032075;28;20778;-60
2022/12/12 13:11:39;;;;;;;21.63;13.40;;;2.00;99.90;;;;;;5036920;28;20048;-59
2022/12/12 13:14:34;;;;;;;21.10;13.48;;;2.00;99.90;;;;;;5032144;28;20486;-59
2022/12/12 13:17:05;;;;;;;22.13;13.10;;;2.00;99.90;;;;;;5032899;28;20049;-60